Needham, Massachusetts
Current Conditions -  °F | °C
As of 10:53 AM on Saturday 25 Oct 2014 (Local Time) from KOWD Reporting Station
Clear Clear  
Wind Chill: 58°   Ceiling: Unl
Heat Index: 58°   Visibility: 10mi
Dew Point: 43°   Wind: 9mph
Humidity: 58%   Direction: 230°SW
Pressure: 29.72"   Gusts: NA
Location:  42.28°N, 71.24°W
Report Text: KOWD 251453Z 23008KT 10SM CLR 14/06 A2972 RMK AO2 SLP064 T01440061 58014
Loading
Personal Weather Stations






























Interactive Weather Map
Tropical Storm Tracking
New forecast layout! Learn more

10-Day Weather Forecast

Advertisements
Track Severe Weather on mobile